Dell Rapids, South Dakota
Current Conditions -  °F | °C
As of 5:56 PM on Sunday 21 Dec 2014 (Local Time) from KFSD Reporting Station
Haze Haze  
Wind Chill: 28°   Ceiling: 500
Heat Index: 38°   Visibility: 6mi
Dew Point: 36°   Wind: 21mph
Humidity: 93%   Direction: 180°S
Pressure: 29.58"   Gusts: 32mph
Location:  43.83°N, 96.71°W
Report Text: KFSD 212356Z 18018G28KT 6SM BR OVC005 03/02 A2958 RMK AO2 PK WND 18028/2347 SLP030 T00330022 10033 20011 55005
Loading
Personal Weather Stations






























Interactive Weather Map New forecast layout! Learn more

10-Day Weather Forecast

Advertisements
Track Severe Weather on mobile